Terminal Aerodrome Forecast
Issued by NWS

Home | Current Version | Previous Version | Text Only | Print | Product List | Glossary On
Versions: 1 2 3 4 5 6 7 8 9 10 11 12
325
FTUS43 KJKL 291121
TAFSME
TAF
KSME 291121Z 2912/3012 18005KT P6SM SCT050 BKN250
     FM291400 22011G18KT P6SM FEW060 SCT250
     FM292300 18004KT P6SM SKC=

USA.gov is the U.S. government's official web portal to all federal, state and local government web resources and services.